Time;durP1;ratioP1;P1;durP2;ratioP2;P2;SDS_P1;SDS_P2;PMS_P1;PMS_P2;Temp;Humidity;BMP_temperature;BMP_pressure;BME280_temperature;BME280_humidity;BME280_pressure;Samples;Min_cycle;Max_cycle;Signal;HPM_P1;HPM_P2
2023/03/05 00:01:39;;;;;;;43.50;16.43;;;;;3.00;96363.00;;;;8436608;28;20252;-67
2023/03/05 00:05:42;;;;;;;42.53;16.67;;;;;2.90;96358.00;;;;8436313;28;20758;-67
2023/03/05 00:09:47;;;;;;;50.37;17.23;;;;;2.80;96368.00;;;;8434959;28;20194;-67
2023/03/05 00:13:52;;;;;;;42.07;17.33;;;;;2.70;96356.00;;;;8436315;28;20204;-67
2023/03/05 00:17:58;;;;;;;39.17;16.87;;;;;2.70;96359.00;;;;8435999;28;20238;-67
2023/03/05 00:22:03;;;;;;;40.50;16.77;;;;;2.70;96352.00;;;;8436203;28;20201;-67
2023/03/05 00:26:10;;;;;;;42.23;16.87;;;;;2.70;96358.00;;;;8435190;28;20212;-67
2023/03/05 00:30:14;;;;;;;52.00;17.93;;;;;2.70;96350.00;;;;8435977;28;20286;-67
2023/03/05 00:34:19;;;;;;;48.23;18.43;;;;;2.80;96345.00;;;;8435335;28;20541;-66
2023/03/05 00:38:22;;;;;;;50.23;18.33;;;;;2.80;96344.00;;;;8435631;28;20234;-66
2023/03/05 00:42:27;;;;;;;48.00;17.83;;;;;2.80;96345.00;;;;8435081;28;20204;-67
2023/03/05 00:46:30;;;;;;;47.10;18.10;;;;;2.80;96338.00;;;;8434870;28;20568;-66
2023/03/05 00:50:33;;;;;;;44.30;18.37;;;;;2.90;96335.00;;;;8434899;28;20226;-66
2023/03/05 00:54:42;;;;;;;43.50;18.57;;;;;2.90;96332.00;;;;8435124;28;20191;-67
2023/03/05 00:58:49;;;;;;;49.80;18.97;;;;;2.90;96328.00;;;;8434993;28;20247;-66
2023/03/05 01:02:53;;;;;;;51.63;19.17;;;;;2.90;96331.00;;;;8434183;28;20731;-66
2023/03/05 01:06:56;;;;;;;46.73;18.53;;;;;2.90;96326.00;;;;8435130;28;20564;-66
2023/03/05 01:11:05;;;;;;;46.90;17.50;;;;;3.00;96320.00;;;;8433503;28;20192;-67
2023/03/05 01:15:13;;;;;;;49.03;17.23;;;;;3.00;96319.00;;;;8414647;28;20723;-67
2023/03/05 01:19:18;;;;;;;46.97;17.57;;;;;2.90;96308.00;;;;8432334;28;20196;-66
2023/03/05 01:23:25;;;;;;;49.23;19.00;;;;;2.90;96309.00;;;;8433180;28;20540;-67
2023/03/05 01:27:30;;;;;;;43.80;17.13;;;;;2.90;96300.00;;;;8433353;28;20302;-66
2023/03/05 01:31:34;;;;;;;43.77;17.43;;;;;2.90;96303.00;;;;8433057;28;20195;-66
2023/03/05 01:35:46;;;;;;;46.63;17.33;;;;;2.90;96289.00;;;;8412090;28;20191;-67
2023/03/05 01:40:00;;;;;;;46.57;17.40;;;;;2.90;96295.00;;;;8433304;28;20204;-67
2023/03/05 01:44:06;;;;;;;48.10;18.33;;;;;2.90;96287.00;;;;8434443;28;20532;-67
2023/03/05 01:48:10;;;;;;;56.03;20.10;;;;;3.00;96283.00;;;;8432578;28;20211;-67
2023/03/05 01:52:19;;;;;;;52.10;19.20;;;;;3.00;96286.00;;;;8430257;28;20194;-67
2023/03/05 01:56:25;;;;;;;51.20;18.23;;;;;3.00;96283.00;;;;8432640;28;20191;-66
2023/03/05 02:00:31;;;;;;;53.33;18.50;;;;;2.90;96280.00;;;;8433341;28;20201;-67
2023/03/05 02:04:43;;;;;;;51.57;19.20;;;;;2.80;96280.00;;;;8433000;28;20298;-66
2023/03/05 02:08:48;;;;;;;48.00;17.30;;;;;2.80;96278.00;;;;8432394;28;20214;-67
2023/03/05 02:12:53;;;;;;;44.53;17.93;;;;;2.80;96266.00;;;;8432423;28;20684;-67
2023/03/05 02:16:56;;;;;;;45.37;18.97;;;;;2.80;96269.00;;;;8432285;28;20630;-66
2023/03/05 02:21:04;;;;;;;50.17;18.73;;;;;2.80;96254.00;;;;8431512;28;20192;-67
2023/03/05 02:25:18;;;;;;;49.07;18.60;;;;;2.80;96249.00;;;;8433782;28;20181;-66
2023/03/05 02:29:21;;;;;;;47.43;18.30;;;;;2.80;96243.00;;;;8431422;28;20245;-66
2023/03/05 02:33:28;;;;;;;48.80;18.27;;;;;2.80;96239.00;;;;8431329;28;20193;-67
2023/03/05 02:37:32;;;;;;;58.70;19.50;;;;;2.80;96240.00;;;;8430821;28;20532;-66
2023/03/05 02:41:38;;;;;;;55.70;18.70;;;;;2.80;96236.00;;;;8414164;28;20304;-66
2023/03/05 02:45:46;;;;;;;57.17;20.47;;;;;2.80;96237.00;;;;8431349;28;20185;-66
2023/03/05 02:49:51;;;;;;;54.20;18.80;;;;;2.80;96232.00;;;;8430300;28;20243;-66
2023/03/05 02:53:58;;;;;;;52.47;19.50;;;;;2.80;96235.00;;;;8432039;28;20195;-66
2023/03/05 02:58:04;;;;;;;51.07;20.10;;;;;2.80;96236.00;;;;8432277;28;20226;-66
2023/03/05 03:02:07;;;;;;;49.27;19.10;;;;;2.80;96234.00;;;;8447449;22;20254;-69
2023/03/05 03:06:11;;;;;;;57.77;19.63;;;;;2.80;96230.00;;;;8437496;28;20207;-67
2023/03/05 03:10:22;;;;;;;57.40;21.47;;;;;2.80;96240.00;;;;8433538;28;20204;-68
2023/03/05 03:14:25;;;;;;;54.60;19.97;;;;;2.90;96228.00;;;;8444123;28;20215;-70
2023/03/05 03:18:28;;;;;;;54.47;21.50;;;;;2.90;96216.00;;;;8432630;28;20648;-68
2023/03/05 03:22:33;;;;;;;51.23;19.43;;;;;2.90;96217.00;;;;8429806;28;20245;-69
2023/03/05 03:26:38;;;;;;;58.93;20.00;;;;;2.90;96208.00;;;;8437664;28;20198;-67
2023/03/05 03:30:45;;;;;;;55.37;18.23;;;;;3.00;96217.00;;;;8428860;28;20199;-69
2023/03/05 03:34:49;;;;;;;55.70;19.80;;;;;3.00;96208.00;;;;8435782;28;20289;-69
2023/03/05 03:38:52;;;;;;;56.07;20.43;;;;;3.00;96203.00;;;;8428062;28;20209;-67
2023/03/05 03:42:58;;;;;;;60.53;21.20;;;;;3.00;96204.00;;;;8448369;28;20257;-67
2023/03/05 03:47:04;;;;;;;57.20;20.10;;;;;3.00;96200.00;;;;8456947;28;20232;-68
2023/03/05 03:51:08;;;;;;;57.53;20.23;;;;;3.00;96194.00;;;;8449652;28;20269;-69
2023/03/05 03:55:13;;;;;;;53.17;18.87;;;;;3.00;96195.00;;;;8441301;28;20193;-68
2023/03/05 03:59:19;;;;;;;67.00;22.03;;;;;3.00;96200.00;;;;8450343;28;20641;-70
2023/03/05 04:03:24;;;;;;;58.87;19.47;;;;;3.00;96181.00;;;;8423436;28;20278;-71
2023/03/05 04:07:28;;;;;;;55.37;19.00;;;;;3.00;96184.00;;;;8410918;28;20226;-68
2023/03/05 04:11:31;;;;;;;54.83;20.10;;;;;3.00;96184.00;;;;8412097;28;20670;-67
2023/03/05 04:15:41;;;;;;;67.73;19.33;;;;;3.00;96180.00;;;;8403255;28;20206;-69
2023/03/05 04:19:44;;;;;;;61.37;20.13;;;;;3.00;96177.00;;;;8401907;28;20228;-68
2023/03/05 04:23:48;;;;;;;62.97;20.30;;;;;3.00;96172.00;;;;8398772;28;20851;-68
2023/03/05 04:27:54;;;;;;;61.53;19.83;;;;;3.10;96175.00;;;;8407084;28;20727;-68
2023/03/05 04:31:59;;;;;;;66.57;21.07;;;;;3.10;96173.00;;;;8409254;28;20205;-68
2023/03/05 04:36:02;;;;;;;59.53;19.07;;;;;3.10;96171.00;;;;8414349;28;20225;-68
2023/03/05 04:40:09;;;;;;;58.40;20.90;;;;;3.10;96163.00;;;;8410994;28;20233;-68
2023/03/05 04:44:16;;;;;;;54.87;20.27;;;;;3.10;96160.00;;;;8406907;28;20206;-68
2023/03/05 04:48:21;;;;;;;65.77;20.23;;;;;3.10;96164.00;;;;8411460;28;20311;-69
2023/03/05 04:52:26;;;;;;;66.13;19.93;;;;;3.10;96161.00;;;;8408079;28;20204;-71
2023/03/05 04:56:33;;;;;;;61.87;18.50;;;;;3.10;96159.00;;;;8413181;28;20197;-69
2023/03/05 05:00:39;;;;;;;61.27;20.43;;;;;3.10;96158.00;;;;8411950;28;20226;-69
2023/03/05 05:04:57;;;;;;;59.97;18.70;;;;;3.10;96155.00;;;;8411746;28;20257;-69
2023/03/05 05:09:03;;;;;;;59.13;19.93;;;;;3.10;96156.00;;;;8408958;28;20235;-67
2023/03/05 05:13:06;;;;;;;56.03;18.37;;;;;3.10;96158.00;;;;8409118;28;20202;-68
2023/03/05 05:17:11;;;;;;;59.47;19.37;;;;;3.00;96152.00;;;;8416398;28;20263;-68
2023/03/05 05:21:19;;;;;;;67.10;21.07;;;;;3.10;96156.00;;;;8412327;28;20255;-69
2023/03/05 05:25:28;;;;;;;62.10;19.97;;;;;3.00;96155.00;;;;8416362;28;20193;-69
2023/03/05 05:29:38;;;;;;;59.43;19.73;;;;;3.00;96150.00;;;;8406932;28;20577;-69
2023/03/05 05:33:41;;;;;;;57.53;18.90;;;;;3.00;96153.00;;;;8406875;28;20197;-68
2023/03/05 05:37:48;;;;;;;67.10;19.60;;;;;3.00;96159.00;;;;8411121;28;20576;-68
2023/03/05 05:41:56;;;;;;;58.87;20.50;;;;;3.00;96151.00;;;;8408720;28;20628;-69
2023/03/05 05:46:00;;;;;;;62.73;19.00;;;;;3.00;96155.00;;;;8409423;28;20196;-68
2023/03/05 05:50:06;;;;;;;53.73;18.63;;;;;3.00;96156.00;;;;8409631;28;20234;-67
2023/03/05 05:54:13;;;;;;;53.77;18.07;;;;;3.00;96158.00;;;;8403496;28;20231;-69
2023/03/05 05:58:18;;;;;;;62.70;18.73;;;;;3.00;96163.00;;;;8406402;28;20252;-69
2023/03/05 06:02:29;;;;;;;61.43;18.70;;;;;3.10;96161.00;;;;8415425;28;20845;-69
2023/03/05 06:06:33;;;;;;;61.57;19.10;;;;;3.10;96160.00;;;;8396664;28;20198;-68
2023/03/05 06:10:41;;;;;;;50.30;17.47;;;;;3.10;96160.00;;;;8398697;28;20271;-68
2023/03/05 06:14:44;;;;;;;54.83;18.00;;;;;3.20;96172.00;;;;8413872;28;20202;-67
2023/03/05 06:18:48;;;;;;;59.90;18.07;;;;;3.20;96166.00;;;;8412787;28;20213;-68
2023/03/05 06:22:51;;;;;;;55.60;17.90;;;;;3.30;96163.00;;;;8405426;28;20218;-68
2023/03/05 06:26:57;;;;;;;52.30;16.70;;;;;3.40;96159.00;;;;8400461;28;20265;-68
2023/03/05 06:31:01;;;;;;;62.67;18.23;;;;;3.40;96166.00;;;;8409195;28;20764;-68
2023/03/05 06:35:05;;;;;;;53.30;18.00;;;;;3.50;96161.00;;;;8409168;28;20584;-67
2023/03/05 06:39:08;;;;;;;48.30;16.90;;;;;3.50;96162.00;;;;8387181;28;20204;-68
2023/03/05 06:43:17;;;;;;;54.93;16.90;;;;;3.60;96163.00;;;;8404969;28;20203;-69
2023/03/05 06:47:20;;;;;;;53.77;16.60;;;;;3.60;96164.00;;;;8407110;28;20208;-68
2023/03/05 06:51:27;;;;;;;51.60;17.40;;;;;3.60;96171.00;;;;8410903;28;20229;-68
2023/03/05 06:55:38;;;;;;;42.27;15.23;;;;;3.60;96163.00;;;;8405182;28;20205;-67
2023/03/05 06:59:44;;;;;;;48.20;15.90;;;;;3.60;96168.00;;;;8402701;28;20201;-67
2023/03/05 07:03:51;;;;;;;59.53;18.77;;;;;3.60;96155.00;;;;8395287;28;20236;-69
2023/03/05 07:08:00;;;;;;;49.43;16.73;;;;;3.60;96158.00;;;;8399963;28;20204;-69
2023/03/05 07:12:04;;;;;;;51.43;16.37;;;;;3.80;96150.00;;;;8410511;28;20251;-68
2023/03/05 07:16:10;;;;;;;47.97;15.87;;;;;3.80;96148.00;;;;8396461;28;20209;-68
2023/03/05 07:20:14;;;;;;;58.40;16.83;;;;;3.80;96151.00;;;;8405985;28;20238;-67
2023/03/05 07:24:23;;;;;;;55.23;16.43;;;;;3.90;96146.00;;;;8413172;28;20654;-69
2023/03/05 07:28:26;;;;;;;46.90;16.40;;;;;4.00;96150.00;;;;8411111;28;20226;-69
2023/03/05 07:32:35;;;;;;;52.33;16.47;;;;;4.00;96144.00;;;;8417593;28;20693;-69
2023/03/05 07:36:39;;;;;;;45.50;16.63;;;;;4.10;96142.00;;;;8411895;28;20210;-68
2023/03/05 07:40:42;;;;;;;48.43;15.37;;;;;4.20;96138.00;;;;8419369;28;20198;-70
2023/03/05 07:44:45;;;;;;;44.40;16.03;;;;;4.10;96137.00;;;;8401311;28;20205;-70
2023/03/05 07:48:54;;;;;;;38.77;14.93;;;;;4.20;96139.00;;;;8415700;28;20231;-70
2023/03/05 07:52:57;;;;;;;46.90;15.47;;;;;4.30;96137.00;;;;8415674;28;20234;-70
2023/03/05 07:57:03;;;;;;;46.67;16.37;;;;;4.40;96134.00;;;;8416888;28;20792;-70
2023/03/05 08:01:14;;;;;;;40.70;15.80;;;;;4.30;96132.00;;;;8411412;28;20193;-69
2023/03/05 08:05:19;;;;;;;41.70;15.97;;;;;4.40;96128.00;;;;8417127;28;20327;-71
2023/03/05 08:09:22;;;;;;;37.83;14.57;;;;;4.40;96127.00;;;;8407538;28;20624;-75
2023/03/05 08:13:25;;;;;;;42.97;15.60;;;;;4.40;96123.00;;;;8407626;28;20206;-73
2023/03/05 08:17:29;;;;;;;44.73;14.60;;;;;4.40;96126.00;;;;8413970;28;20227;-73
2023/03/05 08:21:35;;;;;;;39.60;14.07;;;;;4.40;96130.00;;;;8404942;28;20195;-73
2023/03/05 08:25:39;;;;;;;45.90;16.03;;;;;4.30;96129.00;;;;8411988;28;20214;-72
2023/03/05 08:29:45;;;;;;;44.57;15.83;;;;;4.30;96123.00;;;;8404715;28;20221;-77
2023/03/05 08:33:48;;;;;;;41.63;14.50;;;;;4.40;96123.00;;;;8413351;28;20626;-72
2023/03/05 08:38:07;;;;;;;47.33;16.30;;;;;4.50;96112.00;;;;8410518;28;20203;-73
2023/03/05 08:42:15;;;;;;;48.10;15.70;;;;;4.70;96113.00;;;;8412569;28;20243;-71
2023/03/05 08:46:21;;;;;;;49.00;16.70;;;;;4.90;96123.00;;;;8408924;28;20275;-75
2023/03/05 08:50:24;;;;;;;46.30;16.93;;;;;5.10;96116.00;;;;8415876;28;20253;-73
2023/03/05 08:54:31;;;;;;;45.63;15.23;;;;;5.30;96113.00;;;;8406787;28;20200;-73
2023/03/05 08:58:34;;;;;;;41.43;16.07;;;;;5.40;96123.00;;;;8415501;28;20206;-73
2023/03/05 09:02:40;;;;;;;44.20;16.90;;;;;5.50;96110.00;;;;8403842;28;20307;-79
2023/03/05 09:06:46;;;;;;;42.70;16.13;;;;;5.50;96110.00;;;;8389259;28;20596;-75
2023/03/05 09:10:50;;;;;;;45.93;16.27;;;;;5.50;96096.00;;;;8410805;28;20227;-81
2023/03/05 09:14:55;;;;;;;42.30;16.47;;;;;5.40;96104.00;;;;8404647;28;20266;-76
2023/03/05 09:19:01;;;;;;;40.57;16.90;;;;;5.40;96100.00;;;;8400625;28;20200;-77
2023/03/05 09:23:09;;;;;;;42.20;15.80;;;;;5.50;96094.00;;;;8407121;28;20422;-77
2023/03/05 09:27:21;;;;;;;39.80;15.43;;;;;5.40;96088.00;;;;8389371;28;20253;-77
2023/03/05 09:31:24;;;;;;;44.90;15.60;;;;;5.20;96077.00;;;;8408825;28;20909;-76
2023/03/05 09:35:28;;;;;;;43.23;15.13;;;;;5.10;96086.00;;;;8415095;28;20271;-75
2023/03/05 09:39:35;;;;;;;39.37;13.93;;;;;5.00;96083.00;;;;8410112;28;20209;-73
2023/03/05 09:43:51;;;;;;;42.37;14.77;;;;;4.90;96083.00;;;;8405808;28;20211;-77
2023/03/05 09:48:04;;;;;;;43.60;15.33;;;;;4.80;96085.00;;;;8412794;28;20335;-75
2023/03/05 09:52:15;;;;;;;46.87;16.63;;;;;4.80;96075.00;;;;8406146;28;20219;-73
2023/03/05 09:56:25;;;;;;;44.07;15.77;;;;;4.70;96077.00;;;;8404109;28;20199;-75
2023/03/05 10:00:35;;;;;;;40.67;15.13;;;;;4.70;96078.00;;;;8399622;28;20200;-80
2023/03/05 10:04:44;;;;;;;43.83;15.00;;;;;4.60;96063.00;;;;8405283;28;20650;-75
2023/03/05 10:08:54;;;;;;;44.07;15.87;;;;;4.60;96065.00;;;;8400060;28;20686;-77
2023/03/05 10:13:01;;;;;;;41.43;14.03;;;;;4.70;96071.00;;;;8409082;28;20654;-78
2023/03/05 10:17:51;;;;;;;47.73;17.33;;;;;4.70;96069.00;;;;8406404;28;21166;-73
2023/03/05 10:22:11;;;;;;;49.93;16.90;;;;;4.70;96066.00;;;;8391261;28;20263;-76
2023/03/05 10:26:22;;;;;;;48.17;16.83;;;;;4.70;96060.00;;;;8404583;28;20194;-73
2023/03/05 10:30:39;;;;;;;45.03;16.60;;;;;4.70;96058.00;;;;8399925;28;20234;-75
2023/03/05 10:35:08;;;;;;;46.80;16.77;;;;;4.60;96052.00;;;;8402563;28;20207;-75
2023/03/05 10:39:46;;;;;;;47.20;15.73;;;;;4.60;96054.00;;;;8398017;28;20205;-74
2023/03/05 10:43:57;;;;;;;44.30;14.70;;;;;4.60;96051.00;;;;8400086;28;20212;-72
2023/03/05 10:48:07;;;;;;;43.30;14.93;;;;;4.60;96042.00;;;;8397702;28;20196;-74
2023/03/05 10:52:17;;;;;;;37.03;14.00;;;;;4.60;96037.00;;;;8407807;28;20758;-74
2023/03/05 10:56:24;;;;;;;38.53;13.10;;;;;4.70;96030.00;;;;8413452;28;20636;-74
2023/03/05 11:00:28;;;;;;;35.73;14.50;;;;;4.70;96033.00;;;;8409318;28;20202;-76
2023/03/05 11:04:36;;;;;;;43.60;13.83;;;;;4.80;96024.00;;;;8413133;28;20226;-74
2023/03/05 11:08:39;;;;;;;40.20;14.53;;;;;4.80;96020.00;;;;8405594;28;20258;-77
2023/03/05 11:12:45;;;;;;;36.17;14.00;;;;;4.90;96018.00;;;;8409037;28;20279;-83
2023/03/05 11:16:49;;;;;;;42.90;14.80;;;;;5.00;96012.00;;;;8410426;28;20200;-77
2023/03/05 11:21:09;;;;;;;38.60;13.40;;;;;5.10;96008.00;;;;8407610;28;20206;-77
2023/03/05 11:25:17;;;;;;;36.17;13.70;;;;;5.10;96004.00;;;;8404454;28;20230;-78
2023/03/05 11:29:26;;;;;;;38.27;13.60;;;;;5.20;95996.00;;;;8401649;28;20283;-78
2023/03/05 11:33:30;;;;;;;33.23;11.60;;;;;5.20;95989.00;;;;8405895;28;20243;-79
2023/03/05 11:37:33;;;;;;;37.43;13.50;;;;;5.20;95986.00;;;;8403159;28;20199;-77
2023/03/05 11:41:40;;;;;;;34.97;12.27;;;;;5.20;95980.00;;;;8390290;28;20217;-78
2023/03/05 11:45:46;;;;;;;37.07;12.40;;;;;5.20;95973.00;;;;8404956;28;20734;-88
2023/03/05 11:49:57;;;;;;;29.57;11.63;;;;;5.10;95972.00;;;;8386710;28;20302;-80
2023/03/05 11:54:07;;;;;;;27.87;11.20;;;;;5.10;95954.00;;;;8402891;28;20202;-76
2023/03/05 11:58:25;;;;;;;31.27;11.33;;;;;5.10;95959.00;;;;8397462;28;20204;-78
2023/03/05 12:02:30;;;;;;;31.93;10.70;;;;;5.10;95950.00;;;;8430091;28;20645;-75
2023/03/05 12:06:36;;;;;;;29.30;11.27;;;;;5.10;95945.00;;;;8433783;28;20234;-76
2023/03/05 12:10:40;;;;;;;26.37;9.57;;;;;5.10;95938.00;;;;8435051;28;20222;-73
2023/03/05 12:14:51;;;;;;;22.87;9.67;;;;;5.10;95936.00;;;;8435020;28;20195;-72
2023/03/05 12:19:04;;;;;;;19.73;7.53;;;;;5.00;95937.00;;;;8435371;28;20196;-72
2023/03/05 12:23:13;;;;;;;23.47;8.73;;;;;4.90;95927.00;;;;8435711;28;20286;-72
2023/03/05 12:27:33;;;;;;;16.03;6.53;;;;;4.80;95927.00;;;;8434260;28;20634;-71
2023/03/05 12:31:39;;;;;;;16.87;7.87;;;;;4.70;95925.00;;;;8435769;28;20295;-70
2023/03/05 12:35:43;;;;;;;16.97;7.23;;;;;4.60;95922.00;;;;8434382;28;20195;-70
2023/03/05 12:39:57;;;;;;;17.97;6.37;;;;;4.50;95929.00;;;;8435187;28;20587;-70
2023/03/05 12:44:22;;;;;;;13.37;6.03;;;;;4.50;95919.00;;;;8434462;28;20623;-71
2023/03/05 12:48:47;;;;;;;15.33;5.57;;;;;4.40;95912.00;;;;8435367;28;20185;-70
2023/03/05 12:52:52;;;;;;;9.03;5.30;;;;;4.40;95899.00;;;;8434376;28;20560;-71
2023/03/05 12:56:56;;;;;;;14.53;5.37;;;;;4.40;95898.00;;;;8434871;28;20197;-71
2023/03/05 13:01:03;;;;;;;9.17;5.70;;;;;4.50;95903.00;;;;8433664;28;20201;-71
2023/03/05 13:05:21;;;;;;;14.37;5.10;;;;;4.50;95900.00;;;;8416220;28;20234;-71
2023/03/05 13:09:28;;;;;;;15.87;5.23;;;;;4.50;95906.00;;;;8432896;28;20234;-71
2023/03/05 13:13:37;;;;;;;10.93;5.83;;;;;4.60;95895.00;;;;8433474;28;20313;-71
2023/03/05 13:17:52;;;;;;;14.43;5.13;;;;;4.60;95893.00;;;;8434124;28;20189;-71
2023/03/05 13:22:01;;;;;;;11.87;4.80;;;;;4.70;95889.00;;;;8433552;28;20225;-71
2023/03/05 13:26:14;;;;;;;11.00;4.43;;;;;4.80;95888.00;;;;8433783;28;20194;-72
2023/03/05 13:30:25;;;;;;;9.67;4.53;;;;;4.80;95888.00;;;;8432927;28;20202;-72
2023/03/05 13:34:30;;;;;;;6.33;3.47;;;;;4.90;95881.00;;;;8434034;28;20590;-72
2023/03/05 13:38:52;;;;;;;11.90;4.40;;;;;4.90;95890.00;;;;8417252;28;20175;-72
2023/03/05 13:43:12;;;;;;;8.40;4.23;;;;;5.10;95885.00;;;;8432861;28;20181;-72
2023/03/05 13:47:17;;;;;;;12.90;4.00;;;;;5.10;95871.00;;;;8433146;28;20222;-72
2023/03/05 13:51:27;;;;;;;5.73;3.47;;;;;5.20;95871.00;;;;8432856;28;20212;-72
2023/03/05 13:55:30;;;;;;;11.07;3.73;;;;;5.40;95882.00;;;;8432840;28;20186;-72
2023/03/05 13:59:38;;;;;;;6.53;3.50;;;;;5.50;95872.00;;;;8432755;28;20244;-72
2023/03/05 14:03:41;;;;;;;5.27;3.30;;;;;5.50;95867.00;;;;8432500;28;20223;-73
2023/03/05 14:07:48;;;;;;;9.97;3.77;;;;;5.40;95858.00;;;;8431038;28;20224;-73
2023/03/05 14:12:00;;;;;;;4.00;3.13;;;;;5.30;95857.00;;;;8430453;28;20227;-73
2023/03/05 14:16:07;;;;;;;3.40;3.10;;;;;5.20;95851.00;;;;8431795;28;20594;-73
2023/03/05 14:20:26;;;;;;;7.13;2.90;;;;;5.20;95843.00;;;;8432129;28;20326;-73
2023/03/05 14:24:30;;;;;;;4.40;3.13;;;;;5.30;95848.00;;;;8432567;28;20195;-74
2023/03/05 14:28:36;;;;;;;6.77;3.37;;;;;5.30;95844.00;;;;8432085;28;20179;-74
2023/03/05 14:32:44;;;;;;;5.87;3.13;;;;;5.30;95837.00;;;;8431247;28;20215;-74
2023/03/05 14:36:50;;;;;;;7.03;2.97;;;;;5.40;95831.00;;;;8431906;28;20183;-74
2023/03/05 14:40:56;;;;;;;5.43;3.10;;;;;5.50;95819.00;;;;8413808;28;20219;-74
2023/03/05 14:45:02;;;;;;;5.77;2.93;;;;;5.60;95826.00;;;;8431822;28;20202;-74
2023/03/05 14:49:06;;;;;;;3.87;2.60;;;;;5.50;95810.00;;;;8430837;28;20236;-74
2023/03/05 14:53:14;;;;;;;8.10;3.40;;;;;5.50;95815.00;;;;8431633;28;20556;-75
2023/03/05 14:57:21;;;;;;;24.13;14.33;;;;;5.50;95813.00;;;;8431153;28;20657;-74
2023/03/05 15:01:25;;;;;;;28.17;16.03;;;;;5.50;95813.00;;;;8431630;28;20611;-74
2023/03/05 15:05:29;;;;;;;7.93;4.17;;;;;5.50;95808.00;;;;8430831;28;20187;-75
2023/03/05 15:09:36;;;;;;;43.40;21.70;;;;;5.50;95797.00;;;;8425209;28;20284;-75
2023/03/05 15:13:39;;;;;;;73.07;28.93;;;;;5.40;95797.00;;;;8431159;28;20586;-75
2023/03/05 15:17:47;;;;;;;11.03;5.23;;;;;5.40;95795.00;;;;8430027;28;20192;-75
2023/03/05 15:21:52;;;;;;;72.27;30.83;;;;;5.30;95793.00;;;;8430710;28;20199;-75
2023/03/05 15:25:55;;;;;;;29.83;14.27;;;;;5.30;95785.00;;;;8429543;28;20596;-75
2023/03/05 15:30:01;;;;;;;381.07;130.80;;;;;5.20;95787.00;;;;8430564;28;20203;-75
2023/03/05 15:34:06;;;;;;;1183.50;385.30;;;;;5.20;95785.00;;;;8430240;28;20410;-75
2023/03/05 15:38:11;;;;;;;140.10;46.67;;;;;5.20;95774.00;;;;8430913;28;20289;-75
2023/03/05 15:42:14;;;;;;;404.47;126.73;;;;;5.10;95775.00;;;;8436519;28;20222;-75
2023/03/05 15:46:19;;;;;;;79.93;24.40;;;;;5.00;95768.00;;;;8419559;28;20205;-75
2023/03/05 15:50:23;;;;;;;243.03;63.70;;;;;4.90;95770.00;;;;8436364;28;20201;-75
2023/03/05 15:54:28;;;;;;;266.87;106.33;;;;;4.80;95762.00;;;;8436522;28;20277;-75
2023/03/05 15:58:31;;;;;;;11.17;6.87;;;;;4.80;95757.00;;;;8436081;28;20678;-75
2023/03/05 16:02:34;;;;;;;11.43;4.93;;;;;4.90;95758.00;;;;8436565;28;20308;-75
2023/03/05 16:06:38;;;;;;;6.10;4.43;;;;;4.90;95760.00;;;;8436487;28;20240;-75
2023/03/05 16:10:45;;;;;;;7.87;4.40;;;;;4.90;95754.00;;;;8435897;28;20627;-75
2023/03/05 16:14:49;;;;;;;12.23;8.33;;;;;4.90;95754.00;;;;8435043;28;20222;-75
2023/03/05 16:18:56;;;;;;;18.77;10.43;;;;;4.80;95748.00;;;;8436548;28;20210;-75
2023/03/05 16:22:59;;;;;;;8.47;4.93;;;;;4.80;95745.00;;;;8435617;28;20203;-75
2023/03/05 16:27:04;;;;;;;8.70;4.23;;;;;4.70;95748.00;;;;8436052;28;20280;-75
2023/03/05 16:31:08;;;;;;;11.67;8.80;;;;;4.60;95741.00;;;;8417288;28;20210;-75
2023/03/05 16:35:11;;;;;;;6.30;3.57;;;;;4.60;95733.00;;;;8435379;28;20194;-75
2023/03/05 16:39:17;;;;;;;8.53;5.53;;;;;4.50;95740.00;;;;8434736;28;20247;-75
2023/03/05 16:43:21;;;;;;;7.30;3.73;;;;;4.50;95743.00;;;;8416250;28;20239;-75
2023/03/05 16:47:25;;;;;;;7.10;4.17;;;;;4.40;95732.00;;;;8417056;28;20590;-75
2023/03/05 16:51:29;;;;;;;5.83;3.50;;;;;4.40;95740.00;;;;8433534;28;20252;-75
2023/03/05 16:55:34;;;;;;;7.33;4.00;;;;;4.50;95729.00;;;;8433962;28;20435;-74
2023/03/05 16:59:44;;;;;;;9.27;4.07;;;;;4.40;95728.00;;;;8434256;28;20673;-74
2023/03/05 17:03:47;;;;;;;7.67;3.70;;;;;4.40;95730.00;;;;8434834;28;20222;-75
2023/03/05 17:07:50;;;;;;;7.80;3.50;;;;;4.40;95734.00;;;;8431004;28;20286;-76
2023/03/05 17:11:57;;;;;;;8.47;3.60;;;;;4.40;95724.00;;;;8434380;28;20234;-76
2023/03/05 17:16:05;;;;;;;9.13;4.50;;;;;4.40;95725.00;;;;8433008;28;20198;-76
2023/03/05 17:20:11;;;;;;;12.63;4.90;;;;;4.30;95714.00;;;;8433861;28;20699;-75
2023/03/05 17:24:18;;;;;;;8.20;4.80;;;;;4.30;95722.00;;;;8432943;28;20513;-75
2023/03/05 17:28:25;;;;;;;14.17;5.40;;;;;4.30;95722.00;;;;8415800;28;20186;-76
2023/03/05 17:32:31;;;;;;;76.50;34.77;;;;;4.20;95711.00;;;;8415824;28;20213;-76
2023/03/05 17:36:38;;;;;;;15.87;7.67;;;;;4.10;95728.00;;;;8432581;28;20198;-77
2023/03/05 17:40:42;;;;;;;13.73;6.50;;;;;4.10;95733.00;;;;8433145;28;20190;-76
2023/03/05 17:44:45;;;;;;;8.10;4.80;;;;;4.00;95730.00;;;;8432746;28;20200;-76
2023/03/05 17:48:50;;;;;;;9.20;5.40;;;;;4.00;95727.00;;;;8432775;28;20196;-76
2023/03/05 17:52:54;;;;;;;9.87;5.30;;;;;4.00;95731.00;;;;8432321;28;20226;-74
2023/03/05 17:56:58;;;;;;;10.90;5.10;;;;;3.90;95728.00;;;;8433129;28;20582;-76
2023/03/05 18:01:01;;;;;;;13.93;6.23;;;;;3.80;95727.00;;;;8433268;28;20207;-75
2023/03/05 18:05:07;;;;;;;9.67;5.13;;;;;3.80;95725.00;;;;8431868;28;20258;-76
2023/03/05 18:09:14;;;;;;;12.67;5.90;;;;;3.80;95721.00;;;;8433324;28;20250;-76
2023/03/05 18:13:17;;;;;;;11.70;6.33;;;;;3.80;95719.00;;;;8431960;28;20274;-76
2023/03/05 18:17:21;;;;;;;15.27;6.87;;;;;3.80;95724.00;;;;8432701;28;20229;-76
2023/03/05 18:21:26;;;;;;;12.47;5.77;;;;;3.80;95718.00;;;;8432109;28;20209;-76
2023/03/05 18:25:32;;;;;;;12.70;5.17;;;;;3.80;95715.00;;;;8431720;28;20200;-76
2023/03/05 18:29:38;;;;;;;11.90;6.10;;;;;3.80;95705.00;;;;8432249;28;20517;-76
2023/03/05 18:33:42;;;;;;;12.17;6.27;;;;;3.80;95702.00;;;;8431617;28;20226;-76
2023/03/05 18:37:47;;;;;;;15.67;6.87;;;;;3.80;95697.00;;;;8432139;28;20202;-76
2023/03/05 18:41:55;;;;;;;14.10;6.40;;;;;3.90;95692.00;;;;8431425;28;20214;-76
2023/03/05 18:45:58;;;;;;;14.80;6.40;;;;;3.80;95701.00;;;;8413415;28;20189;-76
2023/03/05 18:50:01;;;;;;;17.63;6.77;;;;;3.70;95705.00;;;;8431264;28;20313;-76
2023/03/05 18:54:07;;;;;;;12.73;6.87;;;;;3.70;95709.00;;;;8431928;28;20226;-82
2023/03/05 18:58:12;;;;;;;12.73;6.93;;;;;3.70;95702.00;;;;8430948;28;20193;-84
2023/03/05 19:02:16;;;;;;;12.73;6.70;;;;;3.70;95695.00;;;;8431850;28;20226;-85
2023/03/05 19:06:19;;;;;;;14.10;6.67;;;;;3.70;95701.00;;;;8430621;28;20220;-84
2023/03/05 19:10:24;;;;;;;14.40;6.37;;;;;3.70;95698.00;;;;8427310;28;20194;-82
2023/03/05 19:14:37;;;;;;;14.53;6.23;;;;;3.70;95702.00;;;;8431955;28;20226;-81
2023/03/05 19:19:03;;;;;;;14.90;5.90;;;;;3.70;95699.00;;;;8434530;28;20277;-80
2023/03/05 19:23:08;;;;;;;21.40;7.07;;;;;3.70;95693.00;;;;8422701;28;20640;-80
2023/03/05 19:27:13;;;;;;;13.47;7.00;;;;;3.70;95689.00;;;;8410699;28;20198;-75
2023/03/05 19:31:16;;;;;;;20.27;9.00;;;;;3.60;95682.00;;;;8437068;28;20239;-77
2023/03/05 19:35:21;;;;;;;19.43;8.23;;;;;3.60;95682.00;;;;8419259;28;20251;-78
2023/03/05 19:39:27;;;;;;;16.97;8.23;;;;;3.60;95681.00;;;;8434777;28;20221;-78
2023/03/05 19:43:32;;;;;;;22.37;8.10;;;;;3.70;95677.00;;;;8436728;28;20195;-78
2023/03/05 19:47:37;;;;;;;16.27;8.20;;;;;3.60;95674.00;;;;8419161;28;20196;-77
2023/03/05 19:51:45;;;;;;;20.33;8.40;;;;;3.70;95672.00;;;;8436073;28;20251;-79
2023/03/05 19:55:48;;;;;;;19.67;8.60;;;;;3.70;95666.00;;;;8418650;28;20274;-78
2023/03/05 19:59:53;;;;;;;22.23;9.00;;;;;3.70;95655.00;;;;8436252;28;20551;-77
2023/03/05 20:03:58;;;;;;;18.90;8.27;;;;;3.60;95646.00;;;;8437239;28;20259;-77
2023/03/05 20:08:04;;;;;;;35.77;15.30;;;;;3.60;95646.00;;;;8437218;28;20196;-76
2023/03/05 20:12:09;;;;;;;29.13;12.10;;;;;3.60;95640.00;;;;8436875;28;20574;-77
2023/03/05 20:16:19;;;;;;;26.50;9.10;;;;;3.60;95643.00;;;;8436747;28;20601;-77
2023/03/05 20:20:25;;;;;;;23.33;9.43;;;;;3.60;95644.00;;;;8436033;28;20228;-76
2023/03/05 20:24:28;;;;;;;22.40;9.50;;;;;3.50;95645.00;;;;8435597;28;20625;-76
2023/03/05 20:28:34;;;;;;;17.73;8.43;;;;;3.50;95640.00;;;;8434200;28;20197;-78